sensor_id;sensor_type;location;lat;lon;timestamp;P1;durP1;ratioP1;P2;durP2;ratioP2
66478;SDS011;53294;47.912;13.526;2023-04-03T00:00:47;8.73;;;5.38;;
66478;SDS011;53294;47.912;13.526;2023-04-03T00:03:16;7.32;;;5.18;;
66478;SDS011;53294;47.912;13.526;2023-04-03T00:05:43;8.70;;;5.15;;
66478;SDS011;53294;47.912;13.526;2023-04-03T00:08:10;8.85;;;5.75;;
66478;SDS011;53294;47.912;13.526;2023-04-03T00:10:37;6.88;;;4.60;;
66478;SDS011;53294;47.912;13.526;2023-04-03T00:13:05;7.75;;;4.95;;
66478;SDS011;53294;47.912;13.526;2023-04-03T00:15:32;7.03;;;4.60;;
66478;SDS011;53294;47.912;13.526;2023-04-03T00:18:00;8.68;;;5.22;;
66478;SDS011;53294;47.912;13.526;2023-04-03T00:20:28;7.18;;;4.53;;
66478;SDS011;53294;47.912;13.526;2023-04-03T00:22:54;6.78;;;4.05;;
66478;SDS011;53294;47.912;13.526;2023-04-03T00:25:21;7.05;;;4.85;;
66478;SDS011;53294;47.912;13.526;2023-04-03T00:27:48;8.38;;;4.78;;
66478;SDS011;53294;47.912;13.526;2023-04-03T00:30:15;8.45;;;4.95;;
66478;SDS011;53294;47.912;13.526;2023-04-03T00:32:43;7.43;;;4.78;;
66478;SDS011;53294;47.912;13.526;2023-04-03T00:35:10;9.00;;;5.53;;
66478;SDS011;53294;47.912;13.526;2023-04-03T00:37:37;7.05;;;4.65;;
66478;SDS011;53294;47.912;13.526;2023-04-03T00:40:04;7.35;;;4.05;;
66478;SDS011;53294;47.912;13.526;2023-04-03T00:42:31;7.88;;;5.10;;
66478;SDS011;53294;47.912;13.526;2023-04-03T00:47:26;8.07;;;4.80;;
66478;SDS011;53294;47.912;13.526;2023-04-03T00:49:53;6.75;;;4.47;;
66478;SDS011;53294;47.912;13.526;2023-04-03T00:52:21;6.32;;;3.95;;
66478;SDS011;53294;47.912;13.526;2023-04-03T00:54:52;7.13;;;5.10;;
66478;SDS011;53294;47.912;13.526;2023-04-03T00:57:23;7.53;;;4.00;;
66478;SDS011;53294;47.912;13.526;2023-04-03T00:59:51;6.13;;;4.22;;
66478;SDS011;53294;47.912;13.526;2023-04-03T01:02:23;8.13;;;4.47;;
66478;SDS011;53294;47.912;13.526;2023-04-03T01:04:50;5.45;;;3.80;;
66478;SDS011;53294;47.912;13.526;2023-04-03T01:07:19;6.97;;;4.47;;
66478;SDS011;53294;47.912;13.526;2023-04-03T01:12:23;10.10;;;4.38;;
66478;SDS011;53294;47.912;13.526;2023-04-03T01:14:52;7.07;;;5.03;;
66478;SDS011;53294;47.912;13.526;2023-04-03T01:17:37;7.93;;;5.10;;
66478;SDS011;53294;47.912;13.526;2023-04-03T01:28:12;7.05;;;5.22;;
66478;SDS011;53294;47.912;13.526;2023-04-03T01:33:31;7.80;;;4.18;;
66478;SDS011;53294;47.912;13.526;2023-04-03T01:35:58;7.63;;;4.95;;
66478;SDS011;53294;47.912;13.526;2023-04-03T01:38:25;7.53;;;4.75;;
66478;SDS011;53294;47.912;13.526;2023-04-03T01:40:52;7.28;;;4.45;;
66478;SDS011;53294;47.912;13.526;2023-04-03T01:43:18;6.70;;;3.85;;
66478;SDS011;53294;47.912;13.526;2023-04-03T01:45:45;6.82;;;4.53;;
66478;SDS011;53294;47.912;13.526;2023-04-03T01:48:12;5.97;;;3.60;;
66478;SDS011;53294;47.912;13.526;2023-04-03T01:50:39;6.10;;;4.00;;
66478;SDS011;53294;47.912;13.526;2023-04-03T01:53:06;6.68;;;4.35;;
66478;SDS011;53294;47.912;13.526;2023-04-03T01:55:33;5.38;;;3.90;;
66478;SDS011;53294;47.912;13.526;2023-04-03T01:57:59;7.93;;;4.40;;
66478;SDS011;53294;47.912;13.526;2023-04-03T02:00:26;6.63;;;4.35;;
66478;SDS011;53294;47.912;13.526;2023-04-03T02:02:53;6.22;;;4.30;;
66478;SDS011;53294;47.912;13.526;2023-04-03T02:05:19;8.35;;;5.50;;
66478;SDS011;53294;47.912;13.526;2023-04-03T02:07:46;7.85;;;4.35;;
66478;SDS011;53294;47.912;13.526;2023-04-03T02:10:13;8.93;;;4.90;;
66478;SDS011;53294;47.912;13.526;2023-04-03T02:12:39;7.63;;;4.95;;
66478;SDS011;53294;47.912;13.526;2023-04-03T02:15:07;6.97;;;4.30;;
66478;SDS011;53294;47.912;13.526;2023-04-03T02:17:34;6.80;;;4.80;;
66478;SDS011;53294;47.912;13.526;2023-04-03T02:20:02;6.78;;;4.05;;
66478;SDS011;53294;47.912;13.526;2023-04-03T02:22:30;7.50;;;4.72;;
66478;SDS011;53294;47.912;13.526;2023-04-03T02:24:57;8.27;;;5.28;;
66478;SDS011;53294;47.912;13.526;2023-04-03T02:27:23;7.32;;;4.00;;
66478;SDS011;53294;47.912;13.526;2023-04-03T02:29:50;7.10;;;4.60;;
66478;SDS011;53294;47.912;13.526;2023-04-03T02:32:17;7.07;;;4.85;;
66478;SDS011;53294;47.912;13.526;2023-04-03T02:34:43;6.47;;;4.32;;
66478;SDS011;53294;47.912;13.526;2023-04-03T02:37:10;6.07;;;4.10;;
66478;SDS011;53294;47.912;13.526;2023-04-03T02:39:37;5.32;;;4.03;;
66478;SDS011;53294;47.912;13.526;2023-04-03T02:42:03;8.52;;;5.68;;
66478;SDS011;53294;47.912;13.526;2023-04-03T02:44:30;7.70;;;4.47;;
66478;SDS011;53294;47.912;13.526;2023-04-03T02:46:57;6.50;;;4.32;;
66478;SDS011;53294;47.912;13.526;2023-04-03T02:49:24;6.95;;;4.57;;
66478;SDS011;53294;47.912;13.526;2023-04-03T02:51:50;7.95;;;4.72;;
66478;SDS011;53294;47.912;13.526;2023-04-03T02:54:17;6.68;;;4.47;;
66478;SDS011;53294;47.912;13.526;2023-04-03T02:56:44;8.45;;;4.40;;
66478;SDS011;53294;47.912;13.526;2023-04-03T02:59:10;7.10;;;4.55;;
66478;SDS011;53294;47.912;13.526;2023-04-03T03:01:37;8.73;;;4.82;;
66478;SDS011;53294;47.912;13.526;2023-04-03T03:04:04;6.68;;;4.30;;
66478;SDS011;53294;47.912;13.526;2023-04-03T03:06:31;6.53;;;4.22;;
66478;SDS011;53294;47.912;13.526;2023-04-03T03:08:57;6.40;;;4.63;;
66478;SDS011;53294;47.912;13.526;2023-04-03T03:11:24;5.90;;;3.97;;
66478;SDS011;53294;47.912;13.526;2023-04-03T03:13:51;7.78;;;4.80;;
66478;SDS011;53294;47.912;13.526;2023-04-03T03:16:18;5.90;;;4.22;;
66478;SDS011;53294;47.912;13.526;2023-04-03T03:18:45;7.57;;;4.18;;
66478;SDS011;53294;47.912;13.526;2023-04-03T03:21:11;6.75;;;4.00;;
66478;SDS011;53294;47.912;13.526;2023-04-03T03:23:38;6.40;;;4.45;;
66478;SDS011;53294;47.912;13.526;2023-04-03T03:26:06;7.35;;;5.18;;
66478;SDS011;53294;47.912;13.526;2023-04-03T03:28:35;5.82;;;3.78;;
66478;SDS011;53294;47.912;13.526;2023-04-03T03:31:03;7.00;;;3.97;;
66478;SDS011;53294;47.912;13.526;2023-04-03T03:33:30;6.88;;;4.82;;
66478;SDS011;53294;47.912;13.526;2023-04-03T03:35:56;9.50;;;4.63;;
66478;SDS011;53294;47.912;13.526;2023-04-03T03:38:23;8.02;;;4.35;;
66478;SDS011;53294;47.912;13.526;2023-04-03T03:40:50;6.88;;;4.45;;
66478;SDS011;53294;47.912;13.526;2023-04-03T03:43:17;7.97;;;4.40;;
66478;SDS011;53294;47.912;13.526;2023-04-03T03:45:45;7.70;;;4.68;;
66478;SDS011;53294;47.912;13.526;2023-04-03T03:48:15;7.15;;;4.55;;
66478;SDS011;53294;47.912;13.526;2023-04-03T03:50:42;6.63;;;4.70;;
66478;SDS011;53294;47.912;13.526;2023-04-03T03:53:09;6.95;;;4.40;;
66478;SDS011;53294;47.912;13.526;2023-04-03T03:55:35;7.93;;;4.95;;
66478;SDS011;53294;47.912;13.526;2023-04-03T03:58:02;6.45;;;4.32;;
66478;SDS011;53294;47.912;13.526;2023-04-03T04:00:29;5.65;;;3.83;;
66478;SDS011;53294;47.912;13.526;2023-04-03T04:02:56;6.97;;;4.63;;
66478;SDS011;53294;47.912;13.526;2023-04-03T04:05:24;7.35;;;4.57;;
66478;SDS011;53294;47.912;13.526;2023-04-03T04:07:51;8.10;;;4.97;;
66478;SDS011;53294;47.912;13.526;2023-04-03T04:10:18;8.18;;;5.20;;
66478;SDS011;53294;47.912;13.526;2023-04-03T04:12:45;7.22;;;4.47;;
66478;SDS011;53294;47.912;13.526;2023-04-03T04:15:11;7.53;;;4.50;;
66478;SDS011;53294;47.912;13.526;2023-04-03T04:17:38;6.97;;;4.55;;
66478;SDS011;53294;47.912;13.526;2023-04-03T04:20:05;6.80;;;4.15;;
66478;SDS011;53294;47.912;13.526;2023-04-03T04:22:32;5.72;;;4.30;;
66478;SDS011;53294;47.912;13.526;2023-04-03T04:24:59;6.38;;;4.13;;
66478;SDS011;53294;47.912;13.526;2023-04-03T04:27:26;5.75;;;3.78;;
66478;SDS011;53294;47.912;13.526;2023-04-03T04:29:52;6.40;;;4.20;;
66478;SDS011;53294;47.912;13.526;2023-04-03T04:32:19;6.65;;;4.32;;
66478;SDS011;53294;47.912;13.526;2023-04-03T04:34:46;7.18;;;4.03;;
66478;SDS011;53294;47.912;13.526;2023-04-03T04:37:12;6.50;;;4.30;;
66478;SDS011;53294;47.912;13.526;2023-04-03T04:39:39;7.07;;;4.60;;
66478;SDS011;53294;47.912;13.526;2023-04-03T04:42:06;7.07;;;4.32;;
66478;SDS011;53294;47.912;13.526;2023-04-03T04:44:33;7.38;;;4.53;;
66478;SDS011;53294;47.912;13.526;2023-04-03T04:46:59;11.80;;;5.30;;
66478;SDS011;53294;47.912;13.526;2023-04-03T04:49:26;6.88;;;4.35;;
66478;SDS011;53294;47.912;13.526;2023-04-03T04:51:53;6.95;;;4.55;;
66478;SDS011;53294;47.912;13.526;2023-04-03T04:54:20;7.85;;;5.03;;
66478;SDS011;53294;47.912;13.526;2023-04-03T04:56:46;8.05;;;4.55;;
66478;SDS011;53294;47.912;13.526;2023-04-03T04:59:13;7.47;;;5.32;;
66478;SDS011;53294;47.912;13.526;2023-04-03T05:01:40;8.43;;;4.43;;
66478;SDS011;53294;47.912;13.526;2023-04-03T05:04:06;7.93;;;4.45;;
66478;SDS011;53294;47.912;13.526;2023-04-03T05:06:33;6.32;;;3.70;;
66478;SDS011;53294;47.912;13.526;2023-04-03T05:09:01;6.38;;;3.70;;
66478;SDS011;53294;47.912;13.526;2023-04-03T05:11:28;5.95;;;3.83;;
66478;SDS011;53294;47.912;13.526;2023-04-03T05:13:54;6.57;;;4.22;;
66478;SDS011;53294;47.912;13.526;2023-04-03T05:16:21;7.47;;;4.75;;
66478;SDS011;53294;47.912;13.526;2023-04-03T05:18:48;6.68;;;3.70;;
66478;SDS011;53294;47.912;13.526;2023-04-03T05:21:14;7.68;;;3.72;;
66478;SDS011;53294;47.912;13.526;2023-04-03T05:23:41;6.10;;;4.18;;
66478;SDS011;53294;47.912;13.526;2023-04-03T05:26:08;6.07;;;4.20;;
66478;SDS011;53294;47.912;13.526;2023-04-03T05:28:34;5.63;;;4.00;;
66478;SDS011;53294;47.912;13.526;2023-04-03T05:31:01;7.22;;;3.75;;
66478;SDS011;53294;47.912;13.526;2023-04-03T05:33:28;8.02;;;4.25;;
66478;SDS011;53294;47.912;13.526;2023-04-03T05:35:55;6.20;;;3.80;;
66478;SDS011;53294;47.912;13.526;2023-04-03T05:38:22;6.53;;;4.05;;
66478;SDS011;53294;47.912;13.526;2023-04-03T05:40:48;5.43;;;3.83;;
66478;SDS011;53294;47.912;13.526;2023-04-03T05:43:15;5.82;;;3.63;;
66478;SDS011;53294;47.912;13.526;2023-04-03T05:45:42;5.93;;;4.28;;
66478;SDS011;53294;47.912;13.526;2023-04-03T05:48:12;6.57;;;4.28;;
66478;SDS011;53294;47.912;13.526;2023-04-03T05:50:39;6.20;;;4.18;;
66478;SDS011;53294;47.912;13.526;2023-04-03T05:53:11;6.82;;;4.60;;
66478;SDS011;53294;47.912;13.526;2023-04-03T05:55:43;6.68;;;4.45;;
66478;SDS011;53294;47.912;13.526;2023-04-03T05:58:10;6.47;;;4.30;;
66478;SDS011;53294;47.912;13.526;2023-04-03T06:00:37;5.88;;;4.10;;
66478;SDS011;53294;47.912;13.526;2023-04-03T06:03:03;7.47;;;4.00;;
66478;SDS011;53294;47.912;13.526;2023-04-03T06:05:31;6.60;;;4.22;;
66478;SDS011;53294;47.912;13.526;2023-04-03T06:07:58;6.88;;;4.13;;
66478;SDS011;53294;47.912;13.526;2023-04-03T06:10:24;4.80;;;3.83;;
66478;SDS011;53294;47.912;13.526;2023-04-03T06:12:51;5.40;;;3.65;;
66478;SDS011;53294;47.912;13.526;2023-04-03T06:15:18;6.05;;;3.80;;
66478;SDS011;53294;47.912;13.526;2023-04-03T06:17:44;7.15;;;4.20;;
66478;SDS011;53294;47.912;13.526;2023-04-03T06:20:12;6.75;;;4.20;;
66478;SDS011;53294;47.912;13.526;2023-04-03T06:22:39;5.63;;;3.80;;
66478;SDS011;53294;47.912;13.526;2023-04-03T06:25:06;7.35;;;4.13;;
66478;SDS011;53294;47.912;13.526;2023-04-03T06:27:33;6.15;;;3.95;;
66478;SDS011;53294;47.912;13.526;2023-04-03T06:30:00;8.60;;;4.47;;
66478;SDS011;53294;47.912;13.526;2023-04-03T06:32:27;6.43;;;4.85;;
66478;SDS011;53294;47.912;13.526;2023-04-03T06:34:54;6.35;;;4.50;;
66478;SDS011;53294;47.912;13.526;2023-04-03T06:37:22;7.13;;;4.63;;
66478;SDS011;53294;47.912;13.526;2023-04-03T06:39:52;6.70;;;4.47;;
66478;SDS011;53294;47.912;13.526;2023-04-03T06:42:18;7.38;;;4.97;;
66478;SDS011;53294;47.912;13.526;2023-04-03T06:44:45;6.63;;;4.30;;
66478;SDS011;53294;47.912;13.526;2023-04-03T06:47:13;6.95;;;4.15;;
66478;SDS011;53294;47.912;13.526;2023-04-03T06:49:41;6.75;;;4.13;;
66478;SDS011;53294;47.912;13.526;2023-04-03T06:52:09;9.88;;;5.07;;
66478;SDS011;53294;47.912;13.526;2023-04-03T06:54:38;8.00;;;4.78;;
66478;SDS011;53294;47.912;13.526;2023-04-03T06:57:06;6.40;;;4.15;;
66478;SDS011;53294;47.912;13.526;2023-04-03T06:59:33;5.35;;;4.00;;
66478;SDS011;53294;47.912;13.526;2023-04-03T07:02:01;6.75;;;4.40;;
66478;SDS011;53294;47.912;13.526;2023-04-03T07:04:28;7.30;;;4.90;;
66478;SDS011;53294;47.912;13.526;2023-04-03T07:06:54;6.28;;;4.57;;
66478;SDS011;53294;47.912;13.526;2023-04-03T07:09:21;7.38;;;4.80;;
66478;SDS011;53294;47.912;13.526;2023-04-03T07:11:48;6.55;;;4.35;;
66478;SDS011;53294;47.912;13.526;2023-04-03T07:14:15;6.10;;;3.65;;
66478;SDS011;53294;47.912;13.526;2023-04-03T07:16:41;8.15;;;4.95;;
66478;SDS011;53294;47.912;13.526;2023-04-03T07:19:08;6.63;;;4.47;;
66478;SDS011;53294;47.912;13.526;2023-04-03T07:21:36;6.57;;;4.10;;
66478;SDS011;53294;47.912;13.526;2023-04-03T07:24:02;6.18;;;4.38;;
66478;SDS011;53294;47.912;13.526;2023-04-03T07:26:29;7.57;;;4.13;;
66478;SDS011;53294;47.912;13.526;2023-04-03T07:28:56;7.97;;;4.68;;
66478;SDS011;53294;47.912;13.526;2023-04-03T07:31:23;5.97;;;4.13;;
66478;SDS011;53294;47.912;13.526;2023-04-03T07:33:51;7.20;;;4.55;;
66478;SDS011;53294;47.912;13.526;2023-04-03T07:36:19;6.00;;;4.53;;
66478;SDS011;53294;47.912;13.526;2023-04-03T07:38:47;6.53;;;4.53;;
66478;SDS011;53294;47.912;13.526;2023-04-03T07:41:14;7.43;;;5.35;;
66478;SDS011;53294;47.912;13.526;2023-04-03T07:43:44;9.85;;;5.72;;
66478;SDS011;53294;47.912;13.526;2023-04-03T07:46:11;8.32;;;5.03;;
66478;SDS011;53294;47.912;13.526;2023-04-03T07:48:39;6.75;;;3.95;;
66478;SDS011;53294;47.912;13.526;2023-04-03T07:51:05;5.38;;;3.47;;
66478;SDS011;53294;47.912;13.526;2023-04-03T07:53:32;7.00;;;4.15;;
66478;SDS011;53294;47.912;13.526;2023-04-03T07:55:59;6.55;;;3.70;;
66478;SDS011;53294;47.912;13.526;2023-04-03T07:58:26;6.22;;;4.18;;
66478;SDS011;53294;47.912;13.526;2023-04-03T08:00:53;7.53;;;4.55;;
66478;SDS011;53294;47.912;13.526;2023-04-03T08:03:20;5.82;;;4.03;;
66478;SDS011;53294;47.912;13.526;2023-04-03T08:05:48;8.10;;;4.78;;
66478;SDS011;53294;47.912;13.526;2023-04-03T08:08:16;5.68;;;4.30;;
66478;SDS011;53294;47.912;13.526;2023-04-03T08:10:53;7.00;;;4.45;;
66478;SDS011;53294;47.912;13.526;2023-04-03T08:13:20;7.18;;;4.40;;
66478;SDS011;53294;47.912;13.526;2023-04-03T08:15:48;5.90;;;4.05;;
66478;SDS011;53294;47.912;13.526;2023-04-03T08:18:15;7.13;;;3.58;;
66478;SDS011;53294;47.912;13.526;2023-04-03T08:20:42;7.25;;;3.90;;
66478;SDS011;53294;47.912;13.526;2023-04-03T08:23:10;6.85;;;4.00;;
66478;SDS011;53294;47.912;13.526;2023-04-03T08:25:38;6.38;;;3.58;;
66478;SDS011;53294;47.912;13.526;2023-04-03T08:28:08;7.32;;;3.50;;
66478;SDS011;53294;47.912;13.526;2023-04-03T08:30:38;5.28;;;3.65;;
66478;SDS011;53294;47.912;13.526;2023-04-03T08:33:06;4.93;;;3.60;;
66478;SDS011;53294;47.912;13.526;2023-04-03T08:35:37;5.38;;;3.78;;
66478;SDS011;53294;47.912;13.526;2023-04-03T08:38:06;7.43;;;4.28;;
66478;SDS011;53294;47.912;13.526;2023-04-03T08:40:33;6.93;;;4.03;;
66478;SDS011;53294;47.912;13.526;2023-04-03T08:43:03;6.40;;;3.83;;
66478;SDS011;53294;47.912;13.526;2023-04-03T08:45:51;5.78;;;4.10;;
66478;SDS011;53294;47.912;13.526;2023-04-03T08:48:23;6.85;;;4.07;;
66478;SDS011;53294;47.912;13.526;2023-04-03T08:50:58;6.72;;;4.00;;
66478;SDS011;53294;47.912;13.526;2023-04-03T08:53:39;7.03;;;4.28;;
66478;SDS011;53294;47.912;13.526;2023-04-03T08:56:10;6.07;;;4.10;;
66478;SDS011;53294;47.912;13.526;2023-04-03T08:58:57;5.28;;;3.55;;
66478;SDS011;53294;47.912;13.526;2023-04-03T09:04:14;5.03;;;3.22;;
66478;SDS011;53294;47.912;13.526;2023-04-03T09:06:45;5.10;;;3.10;;
66478;SDS011;53294;47.912;13.526;2023-04-03T09:09:25;5.43;;;3.35;;
66478;SDS011;53294;47.912;13.526;2023-04-03T09:20:25;5.80;;;3.42;;
66478;SDS011;53294;47.912;13.526;2023-04-03T09:25:44;4.75;;;2.65;;
66478;SDS011;53294;47.912;13.526;2023-04-03T09:28:11;4.13;;;2.80;;
66478;SDS011;53294;47.912;13.526;2023-04-03T09:30:38;4.43;;;2.70;;
66478;SDS011;53294;47.912;13.526;2023-04-03T09:33:05;4.20;;;3.00;;
66478;SDS011;53294;47.912;13.526;2023-04-03T09:35:35;4.78;;;2.88;;
66478;SDS011;53294;47.912;13.526;2023-04-03T09:40:41;4.78;;;2.60;;
66478;SDS011;53294;47.912;13.526;2023-04-03T09:45:42;5.50;;;3.13;;
66478;SDS011;53294;47.912;13.526;2023-04-03T09:56:03;4.70;;;2.95;;
66478;SDS011;53294;47.912;13.526;2023-04-03T09:58:44;6.47;;;3.30;;
66478;SDS011;53294;47.912;13.526;2023-04-03T10:01:57;5.85;;;3.50;;
66478;SDS011;53294;47.912;13.526;2023-04-03T10:04:22;6.88;;;3.20;;
66478;SDS011;53294;47.912;13.526;2023-04-03T10:06:54;5.82;;;3.15;;
66478;SDS011;53294;47.912;13.526;2023-04-03T10:12:02;6.18;;;3.45;;
66478;SDS011;53294;47.912;13.526;2023-04-03T10:14:39;4.95;;;3.20;;
66478;SDS011;53294;47.912;13.526;2023-04-03T10:17:18;7.28;;;3.75;;
66478;SDS011;53294;47.912;13.526;2023-04-03T10:23:12;6.63;;;3.20;;
66478;SDS011;53294;47.912;13.526;2023-04-03T10:25:42;4.70;;;2.97;;
66478;SDS011;53294;47.912;13.526;2023-04-03T10:28:20;6.65;;;3.95;;
66478;SDS011;53294;47.912;13.526;2023-04-03T10:42:22;6.50;;;2.80;;
66478;SDS011;53294;47.912;13.526;2023-04-03T10:55:47;5.95;;;3.17;;
66478;SDS011;53294;47.912;13.526;2023-04-03T10:58:29;5.50;;;3.13;;
66478;SDS011;53294;47.912;13.526;2023-04-03T11:01:15;5.45;;;2.95;;
66478;SDS011;53294;47.912;13.526;2023-04-03T11:03:47;5.63;;;2.88;;
66478;SDS011;53294;47.912;13.526;2023-04-03T11:06:19;6.75;;;3.28;;
66478;SDS011;53294;47.912;13.526;2023-04-03T11:08:55;4.38;;;2.72;;
66478;SDS011;53294;47.912;13.526;2023-04-03T11:11:26;6.50;;;3.10;;
66478;SDS011;53294;47.912;13.526;2023-04-03T11:14:32;6.50;;;3.10;;
66478;SDS011;53294;47.912;13.526;2023-04-03T11:25:49;6.80;;;3.67;;
66478;SDS011;53294;47.912;13.526;2023-04-03T11:28:19;4.75;;;3.05;;
66478;SDS011;53294;47.912;13.526;2023-04-03T11:31:35;4.95;;;2.88;;
66478;SDS011;53294;47.912;13.526;2023-04-03T11:36:33;6.70;;;3.10;;
66478;SDS011;53294;47.912;13.526;2023-04-03T11:39:19;5.10;;;3.03;;
66478;SDS011;53294;47.912;13.526;2023-04-03T11:41:47;3.97;;;2.65;;
66478;SDS011;53294;47.912;13.526;2023-04-03T11:58:17;5.28;;;2.70;;
66478;SDS011;53294;47.912;13.526;2023-04-03T12:03:33;5.60;;;3.05;;
66478;SDS011;53294;47.912;13.526;2023-04-03T12:09:02;6.22;;;3.60;;
66478;SDS011;53294;47.912;13.526;2023-04-03T12:11:47;6.05;;;3.45;;
66478;SDS011;53294;47.912;13.526;2023-04-03T12:14:15;5.05;;;3.15;;
66478;SDS011;53294;47.912;13.526;2023-04-03T12:16:46;6.72;;;3.30;;
66478;SDS011;53294;47.912;13.526;2023-04-03T12:29:47;7.20;;;3.70;;
66478;SDS011;53294;47.912;13.526;2023-04-03T12:38:00;4.50;;;3.30;;
66478;SDS011;53294;47.912;13.526;2023-04-03T12:45:56;4.72;;;3.15;;
66478;SDS011;53294;47.912;13.526;2023-04-03T12:48:48;6.05;;;3.28;;
66478;SDS011;53294;47.912;13.526;2023-04-03T12:51:18;5.70;;;3.08;;
66478;SDS011;53294;47.912;13.526;2023-04-03T12:56:39;4.80;;;2.80;;
66478;SDS011;53294;47.912;13.526;2023-04-03T12:59:16;5.45;;;2.88;;
66478;SDS011;53294;47.912;13.526;2023-04-03T13:01:59;6.30;;;3.23;;
66478;SDS011;53294;47.912;13.526;2023-04-03T13:04:28;5.57;;;2.70;;
66478;SDS011;53294;47.912;13.526;2023-04-03T13:06:56;5.88;;;3.20;;
66478;SDS011;53294;47.912;13.526;2023-04-03T13:09:25;4.78;;;2.70;;
66478;SDS011;53294;47.912;13.526;2023-04-03T13:12:01;4.55;;;2.95;;
66478;SDS011;53294;47.912;13.526;2023-04-03T13:15:11;5.43;;;2.95;;
66478;SDS011;53294;47.912;13.526;2023-04-03T13:17:49;6.15;;;3.05;;
66478;SDS011;53294;47.912;13.526;2023-04-03T13:22:53;7.20;;;2.95;;
66478;SDS011;53294;47.912;13.526;2023-04-03T13:25:24;4.88;;;2.75;;
66478;SDS011;53294;47.912;13.526;2023-04-03T13:27:54;4.93;;;2.92;;
66478;SDS011;53294;47.912;13.526;2023-04-03T13:30:37;4.93;;;3.00;;
66478;SDS011;53294;47.912;13.526;2023-04-03T13:33:18;6.72;;;2.80;;
66478;SDS011;53294;47.912;13.526;2023-04-03T13:35:55;7.82;;;3.42;;
66478;SDS011;53294;47.912;13.526;2023-04-03T13:38:31;5.80;;;3.10;;
66478;SDS011;53294;47.912;13.526;2023-04-03T13:41:01;6.35;;;3.45;;
66478;SDS011;53294;47.912;13.526;2023-04-03T13:43:32;6.32;;;3.25;;
66478;SDS011;53294;47.912;13.526;2023-04-03T13:48:44;6.10;;;2.97;;
66478;SDS011;53294;47.912;13.526;2023-04-03T13:51:17;5.43;;;2.70;;
66478;SDS011;53294;47.912;13.526;2023-04-03T13:53:48;5.90;;;2.92;;
66478;SDS011;53294;47.912;13.526;2023-04-03T13:59:03;5.75;;;3.50;;
66478;SDS011;53294;47.912;13.526;2023-04-03T14:06:59;6.60;;;3.03;;
66478;SDS011;53294;47.912;13.526;2023-04-03T14:09:26;5.18;;;3.00;;
66478;SDS011;53294;47.912;13.526;2023-04-03T14:11:54;4.30;;;3.00;;
66478;SDS011;53294;47.912;13.526;2023-04-03T14:14:29;7.22;;;3.33;;
66478;SDS011;53294;47.912;13.526;2023-04-03T14:16:58;6.00;;;3.17;;
66478;SDS011;53294;47.912;13.526;2023-04-03T14:19:28;4.82;;;3.10;;
66478;SDS011;53294;47.912;13.526;2023-04-03T14:21:58;5.32;;;2.90;;
66478;SDS011;53294;47.912;13.526;2023-04-03T14:24:26;5.43;;;2.97;;
66478;SDS011;53294;47.912;13.526;2023-04-03T14:26:53;6.20;;;2.95;;
66478;SDS011;53294;47.912;13.526;2023-04-03T14:29:21;5.82;;;3.47;;
66478;SDS011;53294;47.912;13.526;2023-04-03T14:31:49;6.18;;;3.63;;
66478;SDS011;53294;47.912;13.526;2023-04-03T14:34:29;5.97;;;2.92;;
66478;SDS011;53294;47.912;13.526;2023-04-03T14:36:55;5.90;;;3.38;;
66478;SDS011;53294;47.912;13.526;2023-04-03T14:39:22;4.93;;;3.28;;
66478;SDS011;53294;47.912;13.526;2023-04-03T14:41:49;4.38;;;2.85;;
66478;SDS011;53294;47.912;13.526;2023-04-03T14:44:16;5.40;;;2.70;;
66478;SDS011;53294;47.912;13.526;2023-04-03T14:46:43;6.20;;;3.72;;
66478;SDS011;53294;47.912;13.526;2023-04-03T14:49:23;4.80;;;3.10;;
66478;SDS011;53294;47.912;13.526;2023-04-03T14:51:54;6.00;;;3.20;;
66478;SDS011;53294;47.912;13.526;2023-04-03T14:54:22;5.10;;;3.15;;
66478;SDS011;53294;47.912;13.526;2023-04-03T14:56:54;6.63;;;3.00;;
66478;SDS011;53294;47.912;13.526;2023-04-03T14:59:22;5.25;;;3.25;;
66478;SDS011;53294;47.912;13.526;2023-04-03T15:01:49;4.85;;;2.88;;
66478;SDS011;53294;47.912;13.526;2023-04-03T15:04:17;7.60;;;3.08;;
66478;SDS011;53294;47.912;13.526;2023-04-03T15:06:45;5.40;;;2.90;;
66478;SDS011;53294;47.912;13.526;2023-04-03T15:09:21;6.57;;;3.35;;
66478;SDS011;53294;47.912;13.526;2023-04-03T15:11:49;5.28;;;2.72;;
66478;SDS011;53294;47.912;13.526;2023-04-03T15:14:17;5.00;;;3.10;;
66478;SDS011;53294;47.912;13.526;2023-04-03T15:17:02;4.95;;;2.88;;
66478;SDS011;53294;47.912;13.526;2023-04-03T15:19:35;5.43;;;3.42;;
66478;SDS011;53294;47.912;13.526;2023-04-03T15:22:03;7.07;;;3.10;;
66478;SDS011;53294;47.912;13.526;2023-04-03T15:24:30;4.95;;;3.35;;
66478;SDS011;53294;47.912;13.526;2023-04-03T15:26:57;5.65;;;3.33;;
66478;SDS011;53294;47.912;13.526;2023-04-03T15:29:24;6.95;;;3.10;;
66478;SDS011;53294;47.912;13.526;2023-04-03T15:31:51;7.10;;;3.90;;
66478;SDS011;53294;47.912;13.526;2023-04-03T15:34:19;4.90;;;3.20;;
66478;SDS011;53294;47.912;13.526;2023-04-03T15:36:48;6.72;;;3.58;;
66478;SDS011;53294;47.912;13.526;2023-04-03T15:39:16;5.60;;;3.08;;
66478;SDS011;53294;47.912;13.526;2023-04-03T15:41:43;5.40;;;3.40;;
66478;SDS011;53294;47.912;13.526;2023-04-03T15:44:11;4.70;;;3.30;;
66478;SDS011;53294;47.912;13.526;2023-04-03T15:46:39;5.88;;;3.28;;
66478;SDS011;53294;47.912;13.526;2023-04-03T15:49:06;6.00;;;3.10;;
66478;SDS011;53294;47.912;13.526;2023-04-03T15:51:32;6.97;;;3.78;;
66478;SDS011;53294;47.912;13.526;2023-04-03T15:53:59;6.15;;;3.60;;
66478;SDS011;53294;47.912;13.526;2023-04-03T15:56:26;5.93;;;3.17;;
66478;SDS011;53294;47.912;13.526;2023-04-03T15:58:53;5.28;;;2.70;;
66478;SDS011;53294;47.912;13.526;2023-04-03T16:01:19;5.90;;;3.03;;
66478;SDS011;53294;47.912;13.526;2023-04-03T16:03:46;5.85;;;3.10;;
66478;SDS011;53294;47.912;13.526;2023-04-03T16:06:14;6.00;;;3.47;;
66478;SDS011;53294;47.912;13.526;2023-04-03T16:08:42;4.88;;;2.95;;
66478;SDS011;53294;47.912;13.526;2023-04-03T16:11:09;6.85;;;3.42;;
66478;SDS011;53294;47.912;13.526;2023-04-03T16:13:35;5.72;;;3.70;;
66478;SDS011;53294;47.912;13.526;2023-04-03T16:16:02;4.55;;;2.80;;
66478;SDS011;53294;47.912;13.526;2023-04-03T16:18:30;7.20;;;3.17;;
66478;SDS011;53294;47.912;13.526;2023-04-03T16:20:57;5.00;;;3.08;;
66478;SDS011;53294;47.912;13.526;2023-04-03T16:23:25;5.40;;;3.25;;
66478;SDS011;53294;47.912;13.526;2023-04-03T16:25:51;5.93;;;3.42;;
66478;SDS011;53294;47.912;13.526;2023-04-03T16:28:18;5.18;;;3.00;;
66478;SDS011;53294;47.912;13.526;2023-04-03T16:30:45;4.90;;;2.78;;
66478;SDS011;53294;47.912;13.526;2023-04-03T16:33:13;7.50;;;3.53;;
66478;SDS011;53294;47.912;13.526;2023-04-03T16:35:40;6.88;;;3.97;;
66478;SDS011;53294;47.912;13.526;2023-04-03T16:38:08;4.82;;;3.08;;
66478;SDS011;53294;47.912;13.526;2023-04-03T16:40:34;7.50;;;3.65;;
66478;SDS011;53294;47.912;13.526;2023-04-03T16:43:01;8.00;;;3.90;;
66478;SDS011;53294;47.912;13.526;2023-04-03T16:45:28;6.18;;;3.88;;
66478;SDS011;53294;47.912;13.526;2023-04-03T16:47:55;5.70;;;3.50;;
66478;SDS011;53294;47.912;13.526;2023-04-03T16:50:22;8.20;;;3.85;;
66478;SDS011;53294;47.912;13.526;2023-04-03T16:52:48;5.57;;;3.67;;
66478;SDS011;53294;47.912;13.526;2023-04-03T16:55:15;5.90;;;3.45;;
66478;SDS011;53294;47.912;13.526;2023-04-03T16:57:42;5.70;;;3.10;;
66478;SDS011;53294;47.912;13.526;2023-04-03T17:00:09;5.50;;;3.38;;
66478;SDS011;53294;47.912;13.526;2023-04-03T17:02:36;6.70;;;3.35;;
66478;SDS011;53294;47.912;13.526;2023-04-03T17:05:02;6.00;;;3.55;;